Goodwill, Louisiana
Current Conditions -  °F | °C
As of 12:35 AM on Friday 19 Dec 2014 (Local Time) from KBQP Reporting Station
Overcast Overcast  
Wind Chill: 47°   Ceiling: 3000
Heat Index: 47°   Visibility: 10mi
Dew Point: 46°   Wind: 3mph
Humidity: 93%   Direction: 40°NE
Pressure: 30.18"   Gusts: NA
Location:  32.8667°N, 91.4273°W
Report Text: KBQP 190635Z AUTO 04003KT 10SM OVC030 09/08 A3018 RMK AO2 T00850075
Loading
Personal Weather Stations






























Interactive Weather Map New forecast layout! Learn more

10-Day Weather Forecast

Advertisements
Track Severe Weather on mobile